createdAt,value
2023-04-12T00:01:09.087Z,9.47
2023-04-12T00:03:36.355Z,9.45
2023-04-12T00:06:03.744Z,9.50
2023-04-12T00:08:33.764Z,9.48
2023-04-12T00:11:03.753Z,9.55
2023-04-12T00:13:30.989Z,9.55
2023-04-12T00:15:58.041Z,9.54
2023-04-12T00:18:25.599Z,9.56
2023-04-12T00:20:53.202Z,9.60
2023-04-12T00:23:20.598Z,9.62
2023-04-12T00:25:47.777Z,9.64
2023-04-12T00:28:15.934Z,9.72
2023-04-12T00:30:43.198Z,9.71
2023-04-12T00:33:10.051Z,9.73
2023-04-12T00:35:37.073Z,9.84
2023-04-12T00:38:06.141Z,9.89
2023-04-12T00:40:33.186Z,9.91
2023-04-12T00:43:00.611Z,9.88
2023-04-12T00:45:27.712Z,9.89
2023-04-12T00:47:56.439Z,9.88
2023-04-12T00:50:24.036Z,9.90
2023-04-12T00:52:52.906Z,9.94
2023-04-12T00:55:20.034Z,9.89
2023-04-12T00:57:46.941Z,9.96
2023-04-12T01:00:14.188Z,9.94
2023-04-12T01:02:50.574Z,10.00
2023-04-12T01:05:23.460Z,9.91
2023-04-12T01:08:12.111Z,10.00
2023-04-12T01:10:50.016Z,10.06
2023-04-12T01:13:40.711Z,10.09
2023-04-12T01:16:46.145Z,10.06
2023-04-12T01:19:34.183Z,10.12
2023-04-12T01:22:46.070Z,10.11
2023-04-12T01:25:39.538Z,10.03
2023-04-12T01:28:10.684Z,10.13
2023-04-12T01:30:39.524Z,10.23
2023-04-12T01:33:10.844Z,10.29
2023-04-12T01:35:38.275Z,10.34
2023-04-12T01:38:06.596Z,10.39
2023-04-12T01:40:33.555Z,10.48
2023-04-12T01:43:12.315Z,10.51
2023-04-12T01:45:39.694Z,10.44
2023-04-12T01:48:10.115Z,10.49
2023-04-12T01:51:11.719Z,10.44
2023-04-12T01:54:11.023Z,10.53
2023-04-12T01:56:41.909Z,10.62
2023-04-12T01:59:10.132Z,10.61
2023-04-12T02:01:37.479Z,10.67
2023-04-12T02:04:06.469Z,10.67
2023-04-12T02:06:34.151Z,10.55
2023-04-12T02:09:03.736Z,10.63
2023-04-12T02:11:30.773Z,10.60
2023-04-12T02:13:58.074Z,10.62
2023-04-12T02:16:25.350Z,10.56
2023-04-12T02:18:52.214Z,10.61
2023-04-12T02:21:19.149Z,10.67
2023-04-12T02:23:45.973Z,10.61
2023-04-12T02:26:13.058Z,10.62
2023-04-12T02:28:39.886Z,10.56
2023-04-12T02:31:07.356Z,10.57
2023-04-12T02:33:34.771Z,10.55
2023-04-12T02:36:02.697Z,10.58
2023-04-12T02:38:30.179Z,10.62
2023-04-12T02:40:57.381Z,10.70
2023-04-12T02:43:24.185Z,10.69
2023-04-12T02:45:51.155Z,10.74
2023-04-12T02:48:18.002Z,10.81
2023-04-12T02:50:44.847Z,10.68
2023-04-12T02:53:11.664Z,10.72
2023-04-12T02:55:38.971Z,10.77
2023-04-12T02:58:06.028Z,10.71
2023-04-12T03:00:33.081Z,10.74
2023-04-12T03:03:03.060Z,10.78
2023-04-12T03:05:30.211Z,10.68
2023-04-12T03:07:57.052Z,10.69
2023-04-12T03:10:23.964Z,10.65
2023-04-12T03:12:50.998Z,10.73
2023-04-12T03:15:18.024Z,10.67
2023-04-12T03:17:44.985Z,10.64
2023-04-12T03:20:13.501Z,10.69
2023-04-12T03:22:40.417Z,10.79
2023-04-12T03:25:09.661Z,10.84
2023-04-12T03:27:36.525Z,10.78
2023-04-12T03:30:03.992Z,10.78
2023-04-12T03:32:30.950Z,10.79
2023-04-12T03:34:57.872Z,10.51
2023-04-12T03:37:24.815Z,10.56
2023-04-12T03:39:51.683Z,10.62
2023-04-12T03:42:31.678Z,10.42
2023-04-12T03:44:59.600Z,10.57
2023-04-12T03:47:26.441Z,10.61
2023-04-12T03:50:10.317Z,10.67
2023-04-12T03:52:38.536Z,10.75
2023-04-12T03:55:07.341Z,10.81
2023-04-12T03:57:34.820Z,10.90
2023-04-12T04:00:02.415Z,10.94
2023-04-12T04:02:29.431Z,10.84
2023-04-12T04:04:56.481Z,10.82
2023-04-12T04:07:23.464Z,10.85
2023-04-12T04:09:50.438Z,10.81
2023-04-12T04:12:17.362Z,10.84
2023-04-12T04:14:44.417Z,10.86
2023-04-12T04:17:11.272Z,10.89
2023-04-12T04:19:38.579Z,10.80
2023-04-12T04:22:05.443Z,10.76
2023-04-12T04:24:34.217Z,10.77
2023-04-12T04:27:01.034Z,10.67
2023-04-12T04:29:29.136Z,10.68
2023-04-12T04:31:57.422Z,10.77
2023-04-12T04:34:25.500Z,10.75
2023-04-12T04:36:52.806Z,10.73
2023-04-12T04:39:19.906Z,10.75
2023-04-12T04:41:46.852Z,10.81
2023-04-12T04:44:14.262Z,10.82
2023-04-12T04:46:41.339Z,10.84
2023-04-12T04:49:08.149Z,10.88
2023-04-12T04:51:35.051Z,10.90
2023-04-12T04:54:02.283Z,10.93
2023-04-12T04:56:29.257Z,11.00
2023-04-12T04:58:57.143Z,11.06
2023-04-12T05:01:28.505Z,11.06
2023-04-12T05:03:56.053Z,11.07
2023-04-12T05:06:23.482Z,11.14
2023-04-12T05:08:52.440Z,11.19
2023-04-12T05:11:20.514Z,11.27
2023-04-12T05:13:47.341Z,11.27
2023-04-12T05:16:14.241Z,11.31
2023-04-12T05:18:41.177Z,11.35
2023-04-12T05:21:08.260Z,11.40
2023-04-12T05:23:44.823Z,11.47
2023-04-12T05:26:11.983Z,11.50
2023-04-12T05:28:38.926Z,11.56
2023-04-12T05:31:06.222Z,11.47
2023-04-12T05:33:34.624Z,11.54
2023-04-12T05:36:02.082Z,11.35
2023-04-12T05:38:28.981Z,11.50
2023-04-12T05:40:55.855Z,11.39
2023-04-12T05:43:22.657Z,11.53
2023-04-12T05:45:51.391Z,11.62
2023-04-12T05:48:19.174Z,11.60
2023-04-12T05:50:53.670Z,11.75
2023-04-12T05:53:21.860Z,11.75
2023-04-12T05:55:48.758Z,11.75
2023-04-12T05:58:15.685Z,11.62
2023-04-12T06:00:42.542Z,11.64
2023-04-12T06:03:11.604Z,11.64
2023-04-12T06:05:39.306Z,11.77
2023-04-12T06:08:08.311Z,11.54
2023-04-12T06:10:35.342Z,11.80
2023-04-12T06:13:02.263Z,11.76
2023-04-12T06:15:31.831Z,12.03
2023-04-12T06:17:59.798Z,11.98
2023-04-12T06:20:27.006Z,11.97
2023-04-12T06:22:53.960Z,12.05
2023-04-12T06:25:21.321Z,12.08
2023-04-12T06:27:48.145Z,11.96
2023-04-12T06:30:15.095Z,12.03
2023-04-12T06:32:42.355Z,12.15
2023-04-12T06:35:09.424Z,12.16
2023-04-12T06:37:36.336Z,12.27
2023-04-12T06:40:03.223Z,12.37
2023-04-12T06:42:30.249Z,12.22
2023-04-12T06:44:57.102Z,12.00
2023-04-12T06:47:25.390Z,12.02
2023-04-12T06:49:56.098Z,12.05
2023-04-12T06:52:26.742Z,12.24
2023-04-12T06:54:56.096Z,12.41
2023-04-12T06:57:23.418Z,12.39
2023-04-12T06:59:50.496Z,12.48
2023-04-12T07:02:17.541Z,12.54
2023-04-12T07:04:44.431Z,12.66
2023-04-12T07:07:11.429Z,12.72
2023-04-12T07:09:38.290Z,12.81
2023-04-12T07:12:05.482Z,12.87
2023-04-12T07:14:32.337Z,12.91
2023-04-12T07:16:59.162Z,12.62
2023-04-12T07:19:26.066Z,12.41
2023-04-12T07:21:52.913Z,13.10
2023-04-12T07:24:19.678Z,13.22
2023-04-12T07:26:46.661Z,13.14
2023-04-12T07:29:13.505Z,13.16
2023-04-12T07:31:40.424Z,13.25
2023-04-12T07:34:07.361Z,12.92
2023-04-12T07:36:34.312Z,13.39
2023-04-12T07:39:01.171Z,13.39
2023-04-12T07:41:28.745Z,12.98
2023-04-12T07:43:55.761Z,12.99
2023-04-12T07:46:22.877Z,13.31
2023-04-12T07:48:51.050Z,13.56
2023-04-12T07:51:18.010Z,13.76
2023-04-12T07:53:48.199Z,13.82
2023-04-12T07:56:15.901Z,13.59
2023-04-12T07:58:42.785Z,13.60
2023-04-12T08:01:12.261Z,13.69
2023-04-12T08:03:39.201Z,13.97
2023-04-12T08:06:06.695Z,14.03
2023-04-12T08:08:33.785Z,14.35
2023-04-12T08:11:02.805Z,14.21
2023-04-12T08:13:29.692Z,14.38
2023-04-12T08:15:56.534Z,14.56
2023-04-12T08:18:23.404Z,14.16
2023-04-12T08:20:50.245Z,14.41
2023-04-12T08:23:18.186Z,14.38
2023-04-12T08:25:45.160Z,14.56
2023-04-12T08:28:12.402Z,14.35
2023-04-12T08:30:39.307Z,14.33
2023-04-12T08:33:06.511Z,14.22
2023-04-12T08:35:33.799Z,14.27
2023-04-12T08:38:06.722Z,14.48
2023-04-12T08:40:34.162Z,14.39
2023-04-12T08:43:05.766Z,14.01
2023-04-12T08:45:35.325Z,13.83
2023-04-12T08:48:04.524Z,13.97
2023-04-12T08:50:32.428Z,14.05
2023-04-12T08:52:59.922Z,14.37
2023-04-12T08:55:26.757Z,14.49
2023-04-12T08:57:58.815Z,14.27
2023-04-12T09:00:26.663Z,14.59
2023-04-12T09:02:53.697Z,14.68
2023-04-12T09:05:23.061Z,14.73
2023-04-12T09:07:50.042Z,14.67
2023-04-12T09:10:37.953Z,14.57
2023-04-12T09:13:05.835Z,14.46
2023-04-12T09:15:34.025Z,14.79
2023-04-12T09:18:09.087Z,14.97
2023-04-12T09:20:37.171Z,14.90
2023-04-12T09:23:36.146Z,14.83
2023-04-12T09:26:03.459Z,14.73
2023-04-12T09:28:31.331Z,14.75
2023-04-12T09:31:00.104Z,14.44
2023-04-12T09:33:36.691Z,14.10
2023-04-12T09:36:06.831Z,14.68
2023-04-12T09:38:36.685Z,14.98
2023-04-12T09:41:26.435Z,15.54
2023-04-12T09:43:53.879Z,15.98
2023-04-12T09:46:20.839Z,15.83
2023-04-12T09:49:03.097Z,15.99
2023-04-12T09:51:32.829Z,16.19
2023-04-12T09:54:03.168Z,16.18
2023-04-12T09:56:34.248Z,16.18
2023-04-12T09:59:03.631Z,16.03
2023-04-12T10:01:36.815Z,16.42
2023-04-12T10:04:06.005Z,17.33
2023-04-12T10:06:41.492Z,17.22
2023-04-12T10:09:08.929Z,17.11
2023-04-12T10:11:37.443Z,16.99
2023-04-12T10:14:06.031Z,17.45
2023-04-12T10:16:35.033Z,17.34
2023-04-12T10:19:04.078Z,16.67
2023-04-12T10:21:31.503Z,16.88
2023-04-12T10:23:58.737Z,16.32
2023-04-12T10:26:26.599Z,17.27
2023-04-12T10:29:31.882Z,16.62
2023-04-12T10:32:20.724Z,17.03
2023-04-12T10:34:58.770Z,17.40
2023-04-12T10:38:01.287Z,17.47
2023-04-12T10:40:33.217Z,17.96
2023-04-12T10:43:18.952Z,18.18
2023-04-12T10:45:46.004Z,18.24
2023-04-12T10:48:34.548Z,17.80
2023-04-12T10:51:26.620Z,17.87
2023-04-12T10:54:14.651Z,18.26
2023-04-12T10:56:46.687Z,17.87
2023-04-12T10:59:14.777Z,18.05
2023-04-12T11:02:03.084Z,17.48
2023-04-12T11:04:30.477Z,17.88
2023-04-12T11:07:01.737Z,18.08
2023-04-12T11:09:34.330Z,18.23
2023-04-12T11:12:04.027Z,18.25
2023-04-12T11:14:36.054Z,18.58
2023-04-12T11:17:06.253Z,18.23
2023-04-12T11:20:04.771Z,18.16
2023-04-12T11:22:33.406Z,18.11
2023-04-12T11:25:02.205Z,18.73
2023-04-12T11:27:31.646Z,18.65
2023-04-12T11:30:00.806Z,18.37
2023-04-12T11:32:30.664Z,18.85
2023-04-12T11:34:58.630Z,18.50
2023-04-12T11:37:27.021Z,19.03
2023-04-12T11:39:57.253Z,19.27
2023-04-12T11:42:26.307Z,20.17
2023-04-12T11:44:57.407Z,20.27
2023-04-12T11:47:26.850Z,20.30
2023-04-12T11:49:59.377Z,19.73
2023-04-12T11:52:32.127Z,19.04
2023-04-12T11:55:06.767Z,18.78
2023-04-12T11:57:34.862Z,19.16
2023-04-12T12:00:05.895Z,19.13
2023-04-12T12:02:41.190Z,18.99
2023-04-12T12:05:16.831Z,19.09
2023-04-12T12:07:44.061Z,19.13
2023-04-12T12:10:11.465Z,19.16
2023-04-12T12:12:38.323Z,19.17
2023-04-12T12:15:06.008Z,19.42
2023-04-12T12:17:38.830Z,19.29
2023-04-12T12:20:06.795Z,19.09
2023-04-12T12:22:34.746Z,18.88
2023-04-12T12:25:01.582Z,18.37
2023-04-12T12:27:38.535Z,18.61
2023-04-12T12:30:09.438Z,18.55
2023-04-12T12:32:39.168Z,18.76
2023-04-12T12:35:14.039Z,19.26
2023-04-12T12:37:52.563Z,19.42
2023-04-12T12:40:34.559Z,19.11
2023-04-12T12:43:01.508Z,19.31
2023-04-12T12:45:31.677Z,19.52
2023-04-12T12:48:00.678Z,19.99
2023-04-12T12:50:30.938Z,20.04
2023-04-12T12:52:59.173Z,20.20
2023-04-12T12:55:26.932Z,20.38
2023-04-12T12:58:07.600Z,20.32
2023-04-12T13:00:35.388Z,19.81
2023-04-12T13:03:03.064Z,19.99
2023-04-12T13:05:30.347Z,19.97
2023-04-12T13:07:57.203Z,19.82
2023-04-12T13:10:24.161Z,19.99
2023-04-12T13:12:51.419Z,20.08
2023-04-12T13:15:23.121Z,20.21
2023-04-12T13:17:53.103Z,20.50
2023-04-12T13:20:20.254Z,20.24
2023-04-12T13:22:47.083Z,20.17
2023-04-12T13:25:14.018Z,19.88
2023-04-12T13:27:40.969Z,19.95
2023-04-12T13:30:08.597Z,19.98
2023-04-12T13:32:35.898Z,20.01
2023-04-12T13:35:04.113Z,20.18
2023-04-12T13:37:31.412Z,20.13
2023-04-12T13:39:58.298Z,20.05
2023-04-12T13:42:25.444Z,20.02
2023-04-12T13:44:52.287Z,19.95
2023-04-12T13:47:19.187Z,20.31
2023-04-12T13:49:46.287Z,20.46
2023-04-12T13:52:13.427Z,20.59
2023-04-12T13:54:41.012Z,20.48
2023-04-12T13:57:08.103Z,20.63
2023-04-12T13:59:35.248Z,20.75
2023-04-12T14:02:02.735Z,20.50
2023-04-12T14:04:31.514Z,20.56
2023-04-12T14:06:59.354Z,20.52
2023-04-12T14:09:31.953Z,20.59
2023-04-12T14:12:01.619Z,20.62
2023-04-12T14:14:28.585Z,20.54
2023-04-12T14:17:01.730Z,20.56
2023-04-12T14:19:28.785Z,20.21
2023-04-12T14:21:55.805Z,20.31
2023-04-12T14:24:23.410Z,19.53
2023-04-12T14:26:51.107Z,19.98
2023-04-12T14:29:17.998Z,19.85
2023-04-12T14:31:44.947Z,20.01
2023-04-12T14:34:13.368Z,20.00
2023-04-12T14:36:40.654Z,19.84
2023-04-12T14:39:10.450Z,19.93
2023-04-12T14:41:38.243Z,20.29
2023-04-12T14:44:05.608Z,20.27
2023-04-12T14:46:32.750Z,20.38
2023-04-12T14:49:01.400Z,20.21
2023-04-12T14:51:29.596Z,20.40
2023-04-12T14:53:57.085Z,20.38
2023-04-12T14:56:28.663Z,20.14
2023-04-12T14:58:57.448Z,20.24
2023-04-12T15:01:25.700Z,20.13
2023-04-12T15:03:53.712Z,20.14
2023-04-12T15:06:23.416Z,20.12
2023-04-12T15:08:55.228Z,20.18
2023-04-12T15:11:26.433Z,20.23
2023-04-12T15:13:53.755Z,20.10
2023-04-12T15:16:20.806Z,20.07
2023-04-12T15:18:47.764Z,20.39
2023-04-12T15:21:14.727Z,20.28
2023-04-12T15:23:41.750Z,20.33
2023-04-12T15:26:12.073Z,19.65
2023-04-12T15:28:39.265Z,18.93
2023-04-12T15:31:07.044Z,19.32
2023-04-12T15:33:37.283Z,19.90
2023-04-12T15:36:05.498Z,20.28
2023-04-12T15:38:32.646Z,20.79
2023-04-12T15:41:01.256Z,20.35
2023-04-12T15:43:28.814Z,21.05
2023-04-12T15:45:56.053Z,21.68
2023-04-12T15:48:24.593Z,20.70
2023-04-12T15:50:53.599Z,21.27
2023-04-12T15:53:25.513Z,20.71
2023-04-12T15:55:55.313Z,20.73
2023-04-12T15:58:23.909Z,20.84
2023-04-12T16:00:52.948Z,20.41
2023-04-12T16:03:23.236Z,20.24
2023-04-12T16:05:53.569Z,20.08
2023-04-12T16:08:21.068Z,19.66
2023-04-12T16:10:49.005Z,19.85
2023-04-12T16:13:16.175Z,19.47
2023-04-12T16:15:43.197Z,19.63
2023-04-12T16:18:10.188Z,19.29
2023-04-12T16:20:37.500Z,19.59
2023-04-12T16:23:05.159Z,19.41
2023-04-12T16:25:33.237Z,19.76
2023-04-12T16:28:02.829Z,19.82
2023-04-12T16:30:32.869Z,19.23
2023-04-12T16:32:59.958Z,19.40
2023-04-12T16:35:26.993Z,18.58
2023-04-12T16:37:54.783Z,19.09
2023-04-12T16:40:22.141Z,19.21
2023-04-12T16:42:49.018Z,19.45
2023-04-12T16:45:15.897Z,19.41
2023-04-12T16:47:45.990Z,19.61
2023-04-12T16:50:13.575Z,19.65
2023-04-12T16:52:41.279Z,19.64
2023-04-12T16:55:12.696Z,19.72
2023-04-12T16:57:41.840Z,19.44
2023-04-12T17:00:19.183Z,19.54
2023-04-12T17:02:49.115Z,19.46
2023-04-12T17:05:18.142Z,18.82
2023-04-12T17:07:50.623Z,18.75
2023-04-12T17:10:23.115Z,18.85
2023-04-12T17:12:52.906Z,18.99
2023-04-12T17:15:23.439Z,18.71
2023-04-12T17:17:59.914Z,18.84
2023-04-12T17:20:27.220Z,18.93
2023-04-12T17:22:55.412Z,18.88
2023-04-12T17:25:24.152Z,18.65
2023-04-12T17:27:53.654Z,18.67
2023-04-12T17:30:20.459Z,18.68
2023-04-12T17:32:47.600Z,18.58
2023-04-12T17:35:14.592Z,18.66
2023-04-12T17:37:41.741Z,18.47
2023-04-12T17:40:12.972Z,18.54
2023-04-12T17:42:41.891Z,18.56
2023-04-12T17:45:14.418Z,18.49
2023-04-12T17:47:42.618Z,18.48
2023-04-12T17:50:11.641Z,18.37
2023-04-12T17:52:38.786Z,18.22
2023-04-12T17:55:09.069Z,18.10
2023-04-12T17:57:35.997Z,18.03
2023-04-12T18:00:03.411Z,18.18
2023-04-12T18:02:30.393Z,18.13
2023-04-12T18:04:57.417Z,18.07
2023-04-12T18:07:24.280Z,17.91
2023-04-12T18:09:51.238Z,17.49
2023-04-12T18:12:18.317Z,17.96
2023-04-12T18:14:45.340Z,17.84
2023-04-12T18:17:12.256Z,17.46
2023-04-12T18:19:39.195Z,17.57
2023-04-12T18:22:08.350Z,17.55
2023-04-12T18:24:36.450Z,17.52
2023-04-12T18:27:05.272Z,17.34
2023-04-12T18:29:32.851Z,17.48
2023-04-12T18:32:00.039Z,17.11
2023-04-12T18:34:27.561Z,17.41
2023-04-12T18:36:54.482Z,17.32
2023-04-12T18:39:24.237Z,17.24
2023-04-12T18:41:51.256Z,17.21
2023-04-12T18:44:19.804Z,17.45
2023-04-12T18:46:46.868Z,17.28
2023-04-12T18:49:14.536Z,17.38
2023-04-12T18:51:42.844Z,17.57
2023-04-12T18:54:15.201Z,16.66
2023-04-12T18:56:44.750Z,17.22
2023-04-12T18:59:15.870Z,17.34
2023-04-12T19:01:42.977Z,17.21
2023-04-12T19:04:12.610Z,16.73
2023-04-12T19:06:39.576Z,17.17
2023-04-12T19:09:06.621Z,17.10
2023-04-12T19:11:36.278Z,17.13
2023-04-12T19:14:03.851Z,16.84
2023-04-12T19:16:30.969Z,16.94
2023-04-12T19:18:59.963Z,16.56
2023-04-12T19:21:29.285Z,16.68
2023-04-12T19:23:56.933Z,16.95
2023-04-12T19:26:24.134Z,17.04
2023-04-12T19:28:55.474Z,16.26
2023-04-12T19:31:23.742Z,16.44
2023-04-12T19:33:50.882Z,16.22
2023-04-12T19:36:17.791Z,15.95
2023-04-12T19:38:47.782Z,15.79
2023-04-12T19:41:16.179Z,15.64
2023-04-12T19:43:43.129Z,15.50
2023-04-12T19:46:10.189Z,15.43
2023-04-12T19:48:37.837Z,15.27
2023-04-12T19:51:05.447Z,15.19
2023-04-12T19:53:33.348Z,15.02
2023-04-12T19:56:00.858Z,15.04
2023-04-12T19:58:27.728Z,14.80
2023-04-12T20:00:55.610Z,14.97
2023-04-12T20:03:23.415Z,14.97
2023-04-12T20:05:52.898Z,15.08
2023-04-12T20:08:19.810Z,15.11
2023-04-12T20:10:46.711Z,14.68
2023-04-12T20:13:15.354Z,14.88
2023-04-12T20:15:43.204Z,14.85
2023-04-12T20:18:12.858Z,14.77
2023-04-12T20:20:44.861Z,14.89
2023-04-12T20:23:15.374Z,14.74
2023-04-12T20:25:42.589Z,14.73
2023-04-12T20:28:09.739Z,14.80
2023-04-12T20:30:37.180Z,14.77
2023-04-12T20:33:04.503Z,14.65
2023-04-12T20:35:31.966Z,14.66
2023-04-12T20:37:59.579Z,14.61
2023-04-12T20:40:29.529Z,14.64
2023-04-12T20:42:59.586Z,14.62
2023-04-12T20:45:27.186Z,14.54
2023-04-12T20:47:54.087Z,14.49
2023-04-12T20:50:23.073Z,14.44
2023-04-12T20:52:52.187Z,14.35
2023-04-12T20:55:19.573Z,14.37
2023-04-12T20:57:46.482Z,13.05
2023-04-12T21:00:23.742Z,12.83
2023-04-12T21:02:50.874Z,12.62
2023-04-12T21:05:17.878Z,12.68
2023-04-12T21:07:46.416Z,12.62
2023-04-12T21:10:13.832Z,12.63
2023-04-12T21:12:41.513Z,12.64
2023-04-12T21:15:11.666Z,12.62
2023-04-12T21:17:39.120Z,12.30
2023-04-12T21:20:13.366Z,12.35
2023-04-12T21:22:42.980Z,12.44
2023-04-12T21:25:16.522Z,12.43
2023-04-12T21:27:45.613Z,12.30
2023-04-12T21:30:13.647Z,12.30
2023-04-12T21:32:41.135Z,12.36
2023-04-12T21:35:09.915Z,12.38
2023-04-12T21:37:38.977Z,12.46
2023-04-12T21:40:09.512Z,12.41
2023-04-12T21:42:40.903Z,12.35
2023-04-12T21:45:09.790Z,12.30
2023-04-12T21:47:39.318Z,12.21
2023-04-12T21:50:08.117Z,12.21
2023-04-12T21:52:35.279Z,12.24
2023-04-12T21:55:03.102Z,12.12
2023-04-12T21:57:31.225Z,12.18
2023-04-12T21:59:58.154Z,11.87
2023-04-12T22:02:26.051Z,12.08
2023-04-12T22:04:53.818Z,12.18
2023-04-12T22:07:21.536Z,12.05
2023-04-12T22:09:48.480Z,11.96
2023-04-12T22:12:17.887Z,12.05
2023-04-12T22:14:49.811Z,11.99
2023-04-12T22:17:18.677Z,12.15
2023-04-12T22:19:45.609Z,12.23
2023-04-12T22:22:14.180Z,12.26
2023-04-12T22:24:41.265Z,12.28
2023-04-12T22:27:09.274Z,12.24
2023-04-12T22:29:37.695Z,12.22
2023-04-12T22:32:04.863Z,12.27
2023-04-12T22:34:32.446Z,12.27
2023-04-12T22:36:59.251Z,12.29
2023-04-12T22:39:27.210Z,12.31
2023-04-12T22:41:57.150Z,12.15
2023-04-12T22:44:25.982Z,12.26
2023-04-12T22:46:56.630Z,12.28
2023-04-12T22:49:28.156Z,12.28
2023-04-12T22:51:55.827Z,12.30
2023-04-12T22:54:26.105Z,12.31
2023-04-12T22:56:52.967Z,12.29
2023-04-12T22:59:22.306Z,12.09
2023-04-12T23:01:49.318Z,12.09
2023-04-12T23:04:16.934Z,12.09
2023-04-12T23:06:44.554Z,12.12
2023-04-12T23:09:12.677Z,11.97
2023-04-12T23:11:41.074Z,11.98
2023-04-12T23:14:08.865Z,11.91
2023-04-12T23:16:42.269Z,11.87
2023-04-12T23:19:09.187Z,11.91
2023-04-12T23:21:36.322Z,11.98
2023-04-12T23:24:04.401Z,11.99
2023-04-12T23:26:34.175Z,11.96
2023-04-12T23:29:03.565Z,11.92
2023-04-12T23:31:33.626Z,11.93
2023-04-12T23:34:05.974Z,11.93
2023-04-12T23:36:33.891Z,11.87
2023-04-12T23:39:02.057Z,11.86
2023-04-12T23:41:31.493Z,11.89
2023-04-12T23:43:59.540Z,11.89
2023-04-12T23:46:27.064Z,11.75
2023-04-12T23:48:53.993Z,11.87
2023-04-12T23:51:21.999Z,11.87
2023-04-12T23:53:48.904Z,11.86
2023-04-12T23:56:15.785Z,11.86
2023-04-12T23:58:42.703Z,11.85
